Time;durP1;ratioP1;P1;durP2;ratioP2;P2;SDS_P1;SDS_P2;PMS_P1;PMS_P2;Temp;Humidity;BMP_temperature;BMP_pressure;BME280_temperature;BME280_humidity;BME280_pressure;Samples;Min_cycle;Max_cycle;Signal;HPM_P1;HPM_P2
2024/02/17 00:01:35;;;;;;;;;;;11.60;99.90;;;;;;7586468;19;20014;-75
2024/02/17 00:04:08;;;;;;;21.15;8.32;;;11.70;99.90;;;;;;7600679;19;20320;-78
2024/02/17 00:06:40;;;;;;;19.23;8.75;;;11.50;99.90;;;;;;7596720;19;20017;-75
2024/02/17 00:09:13;;;;;;;19.92;8.23;;;11.50;99.90;;;;;;7593951;19;20022;-77
2024/02/17 00:11:46;;;;;;;18.98;8.88;;;11.40;99.90;;;;;;7588792;19;20019;-74
2024/02/17 00:14:18;;;;;;;17.67;8.57;;;11.40;99.90;;;;;;7592688;19;20997;-76
2024/02/17 00:16:50;;;;;;;17.08;8.07;;;11.30;99.90;;;;;;7595195;19;20533;-76
2024/02/17 00:19:23;;;;;;;18.10;8.57;;;11.30;99.90;;;;;;7584919;19;20022;-77
2024/02/17 00:21:56;;;;;;;15.68;8.60;;;11.30;99.90;;;;;;7588717;19;20074;-75
2024/02/17 00:24:29;;;;;;;16.88;8.40;;;11.40;99.90;;;;;;7595836;19;20021;-77
2024/02/17 00:27:02;;;;;;;16.30;8.15;;;11.30;99.90;;;;;;7592369;19;20010;-78
2024/02/17 00:29:34;;;;;;;;;;;11.30;99.90;;;;;;7570328;19;20014;-75
2024/02/17 00:32:07;;;;;;;19.17;8.57;;;11.30;99.90;;;;;;7588082;19;19926;-77
2024/02/17 00:34:40;;;;;;;15.23;8.77;;;11.20;99.90;;;;;;7578849;19;20010;-77
2024/02/17 00:37:12;;;;;;;18.10;8.90;;;11.20;99.90;;;;;;7575667;19;20044;-76
2024/02/17 00:39:45;;;;;;;21.83;8.73;;;11.30;99.90;;;;;;7577338;19;20022;-75
2024/02/17 00:42:17;;;;;;;15.57;8.50;;;11.40;99.90;;;;;;7581882;19;20782;-76
2024/02/17 00:44:50;;;;;;;17.27;9.88;;;11.40;99.90;;;;;;7585439;19;20007;-77
2024/02/17 00:47:23;;;;;;;17.35;8.70;;;11.30;99.90;;;;;;7580691;19;20021;-77
2024/02/17 00:49:55;;;;;;;16.55;8.77;;;11.30;99.90;;;;;;7579062;19;20117;-78
2024/02/17 00:52:27;;;;;;;21.02;10.13;;;11.30;99.90;;;;;;7579057;19;20022;-78
2024/02/17 00:55:00;;;;;;;19.48;8.98;;;11.20;99.90;;;;;;7550224;19;20019;-76
2024/02/17 00:57:32;;;;;;;20.25;11.50;;;11.20;99.90;;;;;;7555885;19;20630;-76
2024/02/17 01:00:06;;;;;;;24.42;10.90;;;11.30;99.90;;;;;;7571286;19;20014;-76
2024/02/17 01:02:38;;;;;;;19.60;11.00;;;11.30;99.90;;;;;;7576719;19;20015;-77
2024/02/17 01:05:11;;;;;;;19.27;9.88;;;11.20;99.90;;;;;;7577353;19;20019;-77
2024/02/17 01:07:43;;;;;;;27.13;12.60;;;11.30;99.90;;;;;;7580969;19;20006;-77
2024/02/17 01:10:16;;;;;;;21.83;10.80;;;11.30;99.90;;;;;;7509318;19;20054;-75
2024/02/17 01:12:48;;;;;;;26.17;12.82;;;11.30;99.90;;;;;;7570687;19;20102;-75
2024/02/17 01:15:21;;;;;;;20.58;12.70;;;11.30;99.90;;;;;;7577216;19;20086;-77
2024/02/17 01:17:54;;;;;;;26.65;12.80;;;11.20;99.90;;;;;;7555396;19;20019;-77
2024/02/17 01:20:26;;;;;;;23.02;13.82;;;11.10;99.90;;;;;;7569399;19;20007;-75
2024/02/17 01:22:59;;;;;;;21.10;11.37;;;11.10;99.90;;;;;;7569721;19;20039;-78
2024/02/17 01:25:31;;;;;;;23.50;13.13;;;11.10;99.90;;;;;;7554587;19;20014;-77
2024/02/17 01:28:03;;;;;;;23.77;11.35;;;11.10;99.90;;;;;;7576515;19;20499;-77
2024/02/17 01:30:36;;;;;;;26.58;11.43;;;11.10;99.90;;;;;;7570332;19;20081;-78
2024/02/17 01:33:08;;;;;;;24.35;12.23;;;11.20;99.90;;;;;;7568873;19;20014;-77
2024/02/17 01:35:40;;;;;;;27.50;12.15;;;11.20;99.90;;;;;;7546767;19;21273;-77
2024/02/17 01:38:13;;;;;;;18.83;12.02;;;11.20;99.90;;;;;;7592990;19;20137;-78
2024/02/17 01:40:45;;;;;;;19.27;10.70;;;11.20;99.90;;;;;;7578294;19;20021;-77
2024/02/17 01:43:18;;;;;;;30.05;13.50;;;11.20;99.90;;;;;;7572909;19;20020;-77
2024/02/17 01:45:51;;;;;;;20.63;11.82;;;11.10;99.90;;;;;;7573820;19;20626;-75
2024/02/17 01:48:23;;;;;;;20.17;11.70;;;11.20;99.90;;;;;;7567532;19;20037;-77
2024/02/17 01:50:56;;;;;;;22.80;12.25;;;11.20;99.90;;;;;;7554374;19;20426;-77
2024/02/17 01:53:29;;;;;;;21.92;12.43;;;11.20;99.90;;;;;;7561873;19;21005;-77
2024/02/17 01:56:02;;;;;;;24.83;12.40;;;11.20;99.90;;;;;;7567094;19;20086;-75
2024/02/17 01:58:35;;;;;;;21.75;12.05;;;11.20;99.90;;;;;;7576899;19;20270;-77
2024/02/17 02:01:07;;;;;;;30.58;13.57;;;11.20;99.90;;;;;;7574731;19;20015;-77
2024/02/17 02:03:41;;;;;;;23.02;12.70;;;11.10;99.90;;;;;;7586776;19;20015;-77
2024/02/17 02:06:15;;;;;;;15.13;10.07;;;11.10;99.90;;;;;;7561783;19;20401;-77
2024/02/17 02:08:49;;;;;;;20.45;12.35;;;11.20;99.90;;;;;;7557390;19;21592;-76
2024/02/17 02:11:21;;;;;;;29.20;13.25;;;11.10;99.90;;;;;;7566968;19;20022;-76
2024/02/17 02:14:14;;;;;;;24.98;13.20;;;11.10;99.90;;;;;;7584398;19;20018;-75
2024/02/17 02:16:49;;;;;;;26.88;13.23;;;11.10;99.90;;;;;;7567427;19;20018;-76
2024/02/17 02:19:21;;;;;;;29.58;14.77;;;11.10;99.90;;;;;;7563421;19;20411;-75
2024/02/17 02:21:54;;;;;;;26.58;13.63;;;11.10;99.90;;;;;;7556965;19;20534;-74
2024/02/17 02:24:27;;;;;;;29.75;14.40;;;11.10;99.90;;;;;;7537988;19;20030;-76
2024/02/17 02:26:59;;;;;;;32.97;15.57;;;11.10;99.90;;;;;;7561907;19;20022;-75
2024/02/17 02:29:31;;;;;;;34.33;16.95;;;11.10;99.90;;;;;;7586822;19;20025;-75
2024/02/17 02:32:04;;;;;;;27.17;14.48;;;11.10;99.90;;;;;;7588208;19;20022;-75
2024/02/17 02:34:36;;;;;;;23.58;14.00;;;11.10;99.90;;;;;;7567809;19;20014;-74
2024/02/17 02:37:09;;;;;;;25.03;14.30;;;11.00;99.90;;;;;;7568479;19;20677;-75
2024/02/17 02:39:41;;;;;;;24.00;13.52;;;11.00;99.90;;;;;;7568179;19;20018;-75
2024/02/17 02:42:14;;;;;;;29.85;16.10;;;11.10;99.90;;;;;;7570680;19;20015;-74
2024/02/17 02:44:46;;;;;;;41.17;20.35;;;11.00;99.90;;;;;;7567628;19;20014;-75
2024/02/17 02:47:19;;;;;;;31.67;15.65;;;11.00;99.90;;;;;;7572779;19;20511;-75
2024/02/17 02:49:51;;;;;;;28.98;15.57;;;11.00;99.90;;;;;;7568619;19;20014;-75
2024/02/17 02:52:24;;;;;;;28.83;14.32;;;10.90;99.90;;;;;;7568938;19;20022;-75
2024/02/17 02:54:56;;;;;;;32.38;15.35;;;11.00;99.90;;;;;;7569235;19;20018;-74
2024/02/17 02:57:29;;;;;;;27.23;15.15;;;10.90;99.90;;;;;;7577678;19;20018;-74
2024/02/17 03:00:03;;;;;;;25.13;14.17;;;11.00;99.90;;;;;;7571783;19;20022;-75
2024/02/17 03:02:36;;;;;;;41.72;18.80;;;11.00;99.90;;;;;;7576423;19;20026;-75
2024/02/17 03:05:33;;;;;;;37.60;18.92;;;11.00;99.90;;;;;;7535771;19;20065;-75
2024/02/17 03:08:06;;;;;;;29.90;16.15;;;10.90;99.90;;;;;;7463187;19;20026;-75
2024/02/17 03:10:38;;;;;;;33.40;17.95;;;10.90;99.90;;;;;;7489016;19;20903;-75
2024/02/17 03:13:11;;;;;;;48.83;20.17;;;10.90;99.90;;;;;;7466422;19;20010;-75
2024/02/17 03:15:43;;;;;;;47.93;21.80;;;10.90;99.90;;;;;;7522478;19;20010;-75
2024/02/17 03:18:16;;;;;;;27.67;15.05;;;10.90;99.90;;;;;;7574073;19;20765;-75
2024/02/17 03:20:49;;;;;;;34.72;16.92;;;10.90;99.90;;;;;;7560885;19;20027;-75
2024/02/17 03:23:21;;;;;;;41.55;20.00;;;11.00;99.90;;;;;;7561511;19;21973;-75
2024/02/17 03:25:53;;;;;;;46.38;21.48;;;10.90;99.90;;;;;;7567702;19;20042;-74
2024/02/17 03:28:26;;;;;;;50.13;22.27;;;10.90;99.90;;;;;;7566358;19;20029;-75
2024/02/17 03:30:59;;;;;;;27.27;15.25;;;10.80;99.90;;;;;;7571414;19;20135;-75
2024/02/17 03:33:32;;;;;;;35.90;18.35;;;10.90;99.90;;;;;;7549765;19;21255;-75
2024/02/17 03:36:05;;;;;;;50.80;22.53;;;10.90;99.90;;;;;;7540706;19;20444;-75
2024/02/17 03:38:38;;;;;;;;;;;10.90;99.90;;;;;;7525743;19;20051;-71
2024/02/17 03:41:11;;;;;;;35.78;18.15;;;10.80;99.90;;;;;;7539002;19;19953;-75
2024/02/17 03:43:43;;;;;;;49.15;22.23;;;10.90;99.90;;;;;;7558933;19;20018;-75
2024/02/17 03:46:15;;;;;;;44.17;20.15;;;10.90;99.90;;;;;;7570315;19;20025;-75
2024/02/17 03:48:48;;;;;;;30.23;17.52;;;10.90;99.90;;;;;;7567035;19;20014;-74
2024/02/17 03:51:20;;;;;;;47.20;21.05;;;10.90;99.90;;;;;;7508912;19;20234;-75
2024/02/17 03:53:53;;;;;;;61.70;24.52;;;10.90;99.90;;;;;;7593183;19;20021;-75
2024/02/17 03:56:25;;;;;;;39.20;18.35;;;10.90;99.90;;;;;;7571318;19;20023;-77
2024/02/17 03:58:57;;;;;;;34.90;18.35;;;10.90;99.90;;;;;;7597230;19;20014;-74
2024/02/17 04:01:37;;;;;;;52.70;24.13;;;11.00;99.90;;;;;;7598510;19;20023;-75
2024/02/17 04:04:10;;;;;;;44.42;20.05;;;10.90;99.90;;;;;;7591715;19;20014;-74
2024/02/17 04:06:44;;;;;;;47.63;21.48;;;10.90;99.90;;;;;;7592366;19;20046;-74
2024/02/17 04:09:17;;;;;;;44.75;19.40;;;10.90;99.90;;;;;;7595601;19;20025;-74
2024/02/17 04:11:50;;;;;;;30.55;17.02;;;10.90;99.90;;;;;;7601214;19;20053;-74
2024/02/17 04:14:23;;;;;;;38.08;19.92;;;10.90;99.90;;;;;;7582597;19;20039;-73
2024/02/17 04:16:56;;;;;;;48.42;23.02;;;11.00;99.90;;;;;;7592458;19;20609;-75
2024/02/17 04:19:28;;;;;;;43.70;20.95;;;10.90;99.90;;;;;;7588653;19;21099;-74
2024/02/17 04:22:00;;;;;;;52.22;22.90;;;11.00;99.90;;;;;;7596608;19;21123;-74
2024/02/17 04:24:33;;;;;;;41.10;20.17;;;11.00;99.90;;;;;;7596182;19;20034;-74
2024/02/17 04:27:07;;;;;;;40.20;18.73;;;10.90;99.90;;;;;;7595218;19;20089;-73
2024/02/17 04:29:40;;;;;;;53.03;23.08;;;10.90;99.90;;;;;;7598370;19;20022;-75
2024/02/17 04:32:12;;;;;;;32.10;17.35;;;10.90;99.90;;;;;;7584725;19;20386;-75
2024/02/17 04:34:44;;;;;;;45.47;20.98;;;11.00;99.90;;;;;;7572002;19;22338;-74
2024/02/17 04:37:19;;;;;;;38.08;19.05;;;11.00;99.90;;;;;;7558505;19;20029;-75
2024/02/17 04:39:51;;;;;;;24.95;16.13;;;11.00;99.90;;;;;;7590771;19;20118;-75
2024/02/17 04:42:23;;;;;;;37.20;17.98;;;11.00;99.90;;;;;;7601024;19;20010;-76
2024/02/17 04:44:55;;;;;;;40.20;20.27;;;11.00;99.90;;;;;;7594099;19;20018;-76
2024/02/17 04:47:28;;;;;;;33.20;18.65;;;11.00;99.90;;;;;;7596582;19;20014;-75
2024/02/17 04:50:00;;;;;;;38.95;20.83;;;11.00;99.90;;;;;;7581255;19;20018;-75
2024/02/17 04:52:32;;;;;;;44.40;21.85;;;11.00;99.90;;;;;;7579714;19;20379;-76
2024/02/17 04:55:05;;;;;;;34.75;19.55;;;10.90;99.90;;;;;;7593783;19;20054;-77
2024/02/17 04:57:37;;;;;;;36.95;19.27;;;11.00;99.90;;;;;;7600706;19;20027;-76
2024/02/17 05:00:10;;;;;;;58.53;25.98;;;10.90;99.90;;;;;;7575870;19;20014;-74
2024/02/17 05:02:43;;;;;;;27.88;16.73;;;10.90;99.90;;;;;;7600948;19;20021;-75
2024/02/17 05:05:16;;;;;;;37.17;19.25;;;11.00;99.90;;;;;;7594471;19;20015;-74
2024/02/17 05:07:49;;;;;;;38.55;20.42;;;10.90;99.90;;;;;;7568899;19;20025;-75
2024/02/17 05:10:21;;;;;;;35.17;20.35;;;11.00;99.90;;;;;;7596026;19;20107;-75
2024/02/17 05:12:53;;;;;;;46.42;22.95;;;11.00;99.90;;;;;;7601564;19;20018;-76
2024/02/17 05:15:26;;;;;;;36.72;19.08;;;10.90;99.90;;;;;;7599474;19;20016;-76
2024/02/17 05:17:59;;;;;;;30.85;18.08;;;10.90;99.90;;;;;;7581086;19;20022;-76
2024/02/17 05:20:31;;;;;;;46.67;23.50;;;10.90;99.90;;;;;;7567131;19;20011;-75
2024/02/17 05:23:03;;;;;;;40.47;20.90;;;10.90;99.90;;;;;;7598982;19;20029;-74
2024/02/17 05:25:35;;;;;;;38.55;20.65;;;10.90;99.90;;;;;;7591893;19;20567;-75
2024/02/17 05:28:08;;;;;;;26.85;16.90;;;10.90;99.90;;;;;;7594226;19;20618;-76
2024/02/17 05:30:40;;;;;;;45.47;22.40;;;10.90;99.90;;;;;;7598946;19;20108;-75
2024/02/17 05:33:12;;;;;;;37.28;20.35;;;10.90;99.90;;;;;;7595368;19;20010;-77
2024/02/17 05:35:45;;;;;;;38.95;20.35;;;10.90;99.90;;;;;;7599587;19;20026;-77
2024/02/17 05:38:17;;;;;;;35.88;19.77;;;10.90;99.90;;;;;;7586403;19;20551;-76
2024/02/17 05:40:49;;;;;;;29.55;18.13;;;10.90;99.90;;;;;;7592543;19;20010;-76
2024/02/17 05:43:22;;;;;;;53.70;24.00;;;10.90;99.90;;;;;;7598792;19;20022;-74
2024/02/17 05:45:54;;;;;;;26.63;17.50;;;10.80;99.90;;;;;;7602519;19;20042;-75
2024/02/17 05:48:26;;;;;;;51.17;22.23;;;10.80;99.90;;;;;;7586174;19;20022;-75
2024/02/17 05:50:59;;;;;;;39.90;19.17;;;10.80;99.90;;;;;;7592240;19;20018;-74
2024/02/17 05:53:31;;;;;;;33.80;18.85;;;10.80;99.90;;;;;;7585792;19;20583;-74
2024/02/17 05:56:04;;;;;;;44.33;21.17;;;10.80;99.90;;;;;;7584162;19;20530;-75
2024/02/17 05:58:36;;;;;;;34.60;18.40;;;10.80;99.90;;;;;;7589449;19;20018;-75
2024/02/17 06:01:09;;;;;;;39.67;18.85;;;10.80;99.90;;;;;;7585432;19;20020;-74
2024/02/17 06:03:41;;;;;;;38.47;20.33;;;10.80;99.90;;;;;;7580843;19;20010;-74
2024/02/17 06:06:13;;;;;;;27.65;16.15;;;10.80;99.90;;;;;;7557893;19;20022;-74
2024/02/17 06:08:46;;;;;;;33.08;17.42;;;10.70;99.90;;;;;;7581519;19;20033;-75
2024/02/17 06:11:18;;;;;;;43.03;20.13;;;10.80;99.90;;;;;;7587716;19;21131;-75
2024/02/17 06:13:51;;;;;;;37.92;17.95;;;10.80;99.90;;;;;;7565760;19;20488;-74
2024/02/17 06:16:29;;;;;;;28.92;16.58;;;10.80;99.90;;;;;;7577891;19;20022;-74
2024/02/17 06:21:55;;;;;;;44.80;19.27;;;10.70;99.90;;;;;;7575393;19;20043;-74
2024/02/17 06:24:28;;;;;;;32.33;17.50;;;10.70;99.90;;;;;;7575812;19;20935;-73
2024/02/17 06:27:00;;;;;;;39.80;17.90;;;10.70;99.90;;;;;;7584559;19;20018;-74
2024/02/17 06:29:33;;;;;;;26.08;15.77;;;10.70;99.90;;;;;;7579242;19;20646;-75
2024/02/17 06:32:05;;;;;;;29.00;16.00;;;10.60;99.90;;;;;;7569081;19;20015;-74
2024/02/17 06:34:38;;;;;;;40.38;18.95;;;10.60;99.90;;;;;;7579387;19;20018;-73
2024/02/17 06:37:11;;;;;;;31.45;16.75;;;10.60;99.90;;;;;;7583152;19;20089;-73
2024/02/17 06:39:43;;;;;;;19.67;13.05;;;10.60;99.90;;;;;;7582413;19;20760;-74
2024/02/17 06:42:17;;;;;;;33.13;16.52;;;10.60;99.90;;;;;;7580118;19;20018;-74
2024/02/17 06:44:50;;;;;;;27.90;15.32;;;10.60;99.90;;;;;;7585574;19;20025;-75
2024/02/17 06:47:22;;;;;;;24.83;15.13;;;10.70;99.90;;;;;;7586115;19;20022;-75
2024/02/17 06:49:54;;;;;;;27.60;14.52;;;10.70;99.90;;;;;;7579065;19;20019;-77
2024/02/17 06:52:27;;;;;;;27.55;15.95;;;10.70;99.90;;;;;;7585041;19;20019;-75
2024/02/17 06:54:59;;;;;;;31.25;16.08;;;10.70;99.90;;;;;;7583216;19;20014;-75
2024/02/17 06:57:31;;;;;;;41.13;18.98;;;10.70;99.90;;;;;;7566928;19;20019;-75
2024/02/17 07:00:04;;;;;;;23.42;14.30;;;10.70;99.90;;;;;;7586143;19;20022;-75
2024/02/17 07:02:37;;;;;;;29.85;15.55;;;10.70;99.90;;;;;;7587496;19;20033;-77
2024/02/17 07:05:09;;;;;;;27.60;16.40;;;10.80;99.90;;;;;;7578838;19;20119;-74
2024/02/17 07:07:41;;;;;;;23.17;14.75;;;10.80;99.90;;;;;;7579012;19;20011;-75
2024/02/17 07:10:14;;;;;;;45.08;21.00;;;10.70;99.90;;;;;;7578100;19;20022;-75
2024/02/17 07:12:46;;;;;;;24.93;15.60;;;10.70;99.90;;;;;;7564005;19;20015;-74
2024/02/17 07:15:19;;;;;;;38.85;19.55;;;10.70;99.90;;;;;;7576078;19;20365;-75
2024/02/17 07:17:51;;;;;;;41.25;17.67;;;10.60;99.90;;;;;;7592714;19;20014;-75
2024/02/17 07:20:24;;;;;;;43.08;18.95;;;10.60;99.90;;;;;;7593923;19;20040;-74
2024/02/17 07:22:57;;;;;;;40.17;17.75;;;10.60;99.90;;;;;;7593934;19;20011;-75
2024/02/17 07:25:31;;;;;;;26.02;15.20;;;10.60;99.90;;;;;;7592169;19;21351;-74
2024/02/17 07:28:04;;;;;;;51.65;21.35;;;10.60;99.90;;;;;;7608608;19;20070;-75
2024/02/17 07:30:36;;;;;;;35.42;16.02;;;10.60;99.90;;;;;;7596203;19;20018;-75
2024/02/17 07:33:10;;;;;;;24.02;14.18;;;10.60;99.90;;;;;;7607743;19;20102;-74
2024/02/17 07:35:45;;;;;;;33.25;16.98;;;10.70;99.90;;;;;;7587499;19;20049;-75
2024/02/17 07:38:18;;;;;;;31.75;16.20;;;10.70;99.90;;;;;;7600297;19;20026;-74
2024/02/17 07:40:50;;;;;;;30.90;15.80;;;10.70;99.90;;;;;;7598957;19;20010;-74
2024/02/17 07:43:25;;;;;;;27.40;15.73;;;10.70;99.90;;;;;;7609572;19;20022;-75
2024/02/17 07:45:58;;;;;;;21.42;12.77;;;10.70;99.90;;;;;;7600637;19;20035;-75
2024/02/17 07:48:30;;;;;;;37.33;17.65;;;10.80;99.90;;;;;;7598620;19;20018;-75
2024/02/17 07:51:03;;;;;;;25.85;15.55;;;10.80;99.90;;;;;;7596392;19;20017;-73
2024/02/17 07:53:37;;;;;;;28.38;14.95;;;10.80;99.90;;;;;;7602839;19;20128;-75
2024/02/17 07:56:10;;;;;;;33.47;16.92;;;10.80;99.90;;;;;;7601446;19;20744;-75
2024/02/17 07:58:42;;;;;;;21.23;13.02;;;10.80;99.90;;;;;;7588576;19;20381;-75
2024/02/17 08:01:14;;;;;;;24.73;12.48;;;10.90;99.90;;;;;;7594100;19;20018;-76
2024/02/17 08:03:47;;;;;;;20.40;13.07;;;10.90;99.90;;;;;;7602746;19;20109;-76
2024/02/17 08:06:20;;;;;;;17.35;12.00;;;10.80;99.90;;;;;;7600832;19;20018;-73
2024/02/17 08:08:52;;;;;;;14.60;8.80;;;10.80;99.90;;;;;;7601771;19;20056;-75
2024/02/17 08:11:25;;;;;;;14.25;8.52;;;10.90;99.90;;;;;;7610212;19;21068;-74
2024/02/17 08:13:57;;;;;;;14.38;8.07;;;10.80;99.90;;;;;;7598869;19;20015;-76
2024/02/17 08:16:29;;;;;;;19.10;10.65;;;10.70;99.90;;;;;;7605265;19;20054;-76
2024/02/17 08:19:02;;;;;;;22.50;10.80;;;10.70;99.90;;;;;;7597115;19;20605;-75
2024/02/17 08:21:34;;;;;;;22.55;12.27;;;10.60;99.90;;;;;;7591718;19;20099;-76
2024/02/17 08:24:07;;;;;;;22.98;12.48;;;10.60;99.90;;;;;;7585670;19;20045;-74
2024/02/17 08:26:39;;;;;;;21.38;11.63;;;10.60;99.90;;;;;;7589253;19;20017;-75
2024/02/17 08:29:11;;;;;;;28.17;13.63;;;10.60;99.90;;;;;;7589234;19;20021;-75
2024/02/17 08:31:51;;;;;;;24.60;12.98;;;10.60;99.90;;;;;;7582175;19;20496;-75
2024/02/17 08:34:24;;;;;;;24.27;14.43;;;10.50;99.90;;;;;;7569675;19;20090;-76
2024/02/17 08:36:57;;;;;;;24.25;13.18;;;10.50;99.90;;;;;;7573510;19;20018;-76
2024/02/17 08:39:30;;;;;;;29.25;14.40;;;10.50;99.90;;;;;;7585957;19;20021;-76
2024/02/17 08:42:02;;;;;;;29.10;14.48;;;10.50;99.90;;;;;;7553571;19;20996;-74
2024/02/17 08:44:37;;;;;;;26.95;15.38;;;10.50;99.90;;;;;;7585327;19;20024;-75
2024/02/17 08:47:10;;;;;;;25.40;13.52;;;10.50;99.90;;;;;;7582871;19;20015;-74
2024/02/17 08:49:43;;;;;;;31.45;15.40;;;10.50;99.90;;;;;;7572742;19;20029;-76
2024/02/17 08:52:15;;;;;;;28.95;13.88;;;10.50;99.90;;;;;;7578933;19;20028;-75
2024/02/17 08:54:47;;;;;;;29.25;14.65;;;10.50;99.90;;;;;;7590813;19;20638;-75
2024/02/17 08:57:20;;;;;;;31.30;14.80;;;10.60;99.90;;;;;;7578545;19;20014;-75
2024/02/17 08:59:53;;;;;;;20.50;12.35;;;10.60;99.90;;;;;;7585452;19;20428;-74
2024/02/17 09:02:25;;;;;;;24.92;12.52;;;10.60;99.90;;;;;;7535866;19;21995;-75
2024/02/17 09:04:59;;;;;;;19.63;11.00;;;10.50;99.90;;;;;;7570846;19;20010;-76
2024/02/17 09:07:32;;;;;;;17.75;9.68;;;10.40;99.90;;;;;;7553840;19;20014;-75
2024/02/17 09:10:06;;;;;;;15.70;8.50;;;10.50;99.90;;;;;;7573871;19;20113;-74
2024/02/17 09:12:38;;;;;;;11.80;7.72;;;10.30;99.90;;;;;;7572436;19;20051;-77
2024/02/17 09:15:11;;;;;;;18.63;8.60;;;10.40;99.90;;;;;;7570286;19;20137;-74
2024/02/17 09:17:44;;;;;;;16.20;8.63;;;10.40;99.90;;;;;;7572022;19;20290;-74
2024/02/17 09:20:16;;;;;;;17.87;8.93;;;10.40;99.90;;;;;;7544455;19;20113;-74
2024/02/17 09:22:49;;;;;;;16.63;9.60;;;10.40;99.90;;;;;;7573830;19;21392;-74
2024/02/17 09:25:21;;;;;;;15.48;9.27;;;10.50;99.90;;;;;;7550809;19;20010;-74
2024/02/17 09:27:53;;;;;;;28.33;11.82;;;10.40;99.90;;;;;;7555377;19;21253;-73
2024/02/17 09:30:26;;;;;;;18.90;10.68;;;10.40;99.90;;;;;;7540708;19;20111;-73
2024/02/17 09:32:58;;;;;;;21.27;11.15;;;10.50;99.90;;;;;;7559349;19;20622;-72
2024/02/17 09:35:31;;;;;;;21.55;10.95;;;10.40;99.90;;;;;;7552855;19;20828;-74
2024/02/17 09:38:03;;;;;;;21.58;12.13;;;10.50;99.90;;;;;;7555418;19;20789;-74
2024/02/17 09:40:36;;;;;;;27.10;14.82;;;10.50;99.90;;;;;;7560351;19;20021;-75
2024/02/17 09:43:08;;;;;;;24.27;13.15;;;10.50;99.90;;;;;;7573860;19;20143;-73
2024/02/17 09:45:40;;;;;;;29.77;15.40;;;10.50;99.90;;;;;;7576605;19;20014;-74
2024/02/17 09:48:13;;;;;;;33.88;16.98;;;10.50;99.90;;;;;;7552281;19;21523;-75
2024/02/17 09:50:49;;;;;;;28.17;14.35;;;10.40;99.90;;;;;;7564004;19;20022;-74
2024/02/17 09:53:24;;;;;;;30.15;15.02;;;10.40;99.90;;;;;;7563013;19;20018;-74
2024/02/17 09:55:57;;;;;;;26.55;14.43;;;10.50;99.90;;;;;;7571300;19;20024;-74
2024/02/17 09:58:29;;;;;;;26.93;13.30;;;10.50;99.90;;;;;;7542855;19;20015;-72
2024/02/17 10:01:02;;;;;;;29.35;14.95;;;10.60;99.90;;;;;;7511678;19;20010;-75
2024/02/17 10:03:38;;;;;;;27.37;15.07;;;10.50;99.90;;;;;;7562651;19;20022;-73
2024/02/17 10:06:12;;;;;;;37.22;16.95;;;10.60;99.90;;;;;;7549359;19;20030;-76
2024/02/17 10:08:46;;;;;;;39.15;16.73;;;10.60;99.90;;;;;;7563270;19;20100;-74
2024/02/17 10:11:20;;;;;;;28.98;15.02;;;10.60;99.90;;;;;;7576545;19;20035;-73
2024/02/17 10:14:00;;;;;;;30.55;15.38;;;10.60;99.90;;;;;;7549370;19;20011;-72
2024/02/17 10:16:32;;;;;;;33.63;15.27;;;10.60;99.90;;;;;;7559989;19;20014;-73
2024/02/17 10:19:05;;;;;;;29.93;15.87;;;10.60;99.90;;;;;;7564201;19;20016;-73
2024/02/17 10:21:39;;;;;;;26.95;14.70;;;10.60;99.90;;;;;;7564455;19;20007;-72
2024/02/17 10:24:11;;;;;;;31.05;15.73;;;10.70;99.90;;;;;;7563884;19;20021;-74
2024/02/17 10:26:44;;;;;;;31.17;15.85;;;10.80;99.90;;;;;;7551051;19;20039;-75
2024/02/17 10:29:16;;;;;;;40.00;17.05;;;10.70;99.90;;;;;;7563065;19;20103;-74
2024/02/17 10:31:49;;;;;;;27.08;15.10;;;10.80;99.90;;;;;;7553759;19;20014;-74
2024/02/17 10:34:21;;;;;;;35.03;15.82;;;10.70;99.90;;;;;;7562260;19;20107;-74
2024/02/17 10:36:55;;;;;;;32.00;17.00;;;10.70;99.90;;;;;;7547979;19;20022;-75
2024/02/17 10:39:29;;;;;;;33.58;16.40;;;10.80;99.90;;;;;;7544029;19;20021;-74
2024/02/17 10:42:01;;;;;;;32.80;16.15;;;10.70;99.90;;;;;;7545233;19;20022;-78
2024/02/17 10:44:33;;;;;;;29.92;16.75;;;10.50;99.90;;;;;;7566610;19;20022;-74
2024/02/17 10:47:06;;;;;;;36.15;16.80;;;10.60;99.90;;;;;;7575927;19;20047;-76
2024/02/17 10:49:44;;;;;;;34.22;16.98;;;10.60;99.90;;;;;;7567355;19;20086;-77
2024/02/17 10:52:20;;;;;;;29.63;15.85;;;10.60;99.90;;;;;;7545989;19;20023;-75
2024/02/17 10:54:56;;;;;;;36.47;16.90;;;10.60;99.90;;;;;;7570246;19;20746;-76
2024/02/17 10:57:39;;;;;;;35.03;16.33;;;10.60;99.90;;;;;;7572468;19;21015;-75
2024/02/17 11:00:12;;;;;;;34.97;17.42;;;10.70;99.90;;;;;;7557622;19;20455;-72
2024/02/17 11:02:47;;;;;;;31.23;15.85;;;10.80;99.90;;;;;;7570820;19;20530;-72
2024/02/17 11:05:21;;;;;;;36.10;16.83;;;10.80;99.90;;;;;;7586347;19;20342;-71
2024/02/17 11:07:54;;;;;;;42.75;17.63;;;10.70;99.90;;;;;;7565217;19;20019;-71
2024/02/17 11:10:28;;;;;;;42.10;19.15;;;10.60;99.90;;;;;;7588949;19;20010;-73
2024/02/17 11:13:02;;;;;;;35.58;16.92;;;10.60;99.90;;;;;;7555912;19;20014;-71
2024/02/17 11:16:03;;;;;;;35.65;17.50;;;10.60;99.90;;;;;;7567942;19;20130;-72
2024/02/17 11:18:37;;;;;;;33.90;16.88;;;10.70;99.90;;;;;;7583815;19;20011;-72
2024/02/17 11:21:10;;;;;;;33.90;16.95;;;10.70;99.90;;;;;;7593909;19;20018;-73
2024/02/17 11:23:43;;;;;;;;;;;10.70;99.90;;;;;;7582651;19;20018;-74
2024/02/17 11:26:16;;;;;;;40.40;18.33;;;10.70;99.90;;;;;;7588135;19;20577;-72
2024/02/17 11:29:05;;;;;;;34.70;17.05;;;10.80;99.90;;;;;;7586021;19;20018;-75
2024/02/17 11:31:37;;;;;;;30.65;15.60;;;10.70;99.90;;;;;;7581575;19;20029;-73
2024/02/17 11:34:09;;;;;;;31.10;16.13;;;10.80;99.90;;;;;;7579136;19;20018;-75
2024/02/17 11:36:42;;;;;;;29.13;15.68;;;10.90;99.90;;;;;;7565455;19;20018;-75
2024/02/17 11:39:16;;;;;;;31.40;16.92;;;10.90;99.90;;;;;;7570752;19;20098;-76
2024/02/17 11:41:50;;;;;;;;;;;10.80;99.90;;;;;;7564044;19;20530;-76
2024/02/17 11:44:22;;;;;;;30.33;15.25;;;10.90;99.90;;;;;;7559277;19;19926;-74
2024/02/17 11:46:54;;;;;;;26.90;14.48;;;10.80;99.90;;;;;;7539413;19;20974;-75
2024/02/17 11:49:27;;;;;;;25.00;13.13;;;10.80;99.90;;;;;;7572954;19;20015;-76
2024/02/17 11:51:59;;;;;;;20.17;11.13;;;10.80;99.90;;;;;;7568875;19;20034;-76
2024/02/17 11:54:34;;;;;;;19.13;10.95;;;10.90;99.90;;;;;;7555565;19;20026;-76
2024/02/17 11:57:08;;;;;;;16.67;9.55;;;11.10;99.90;;;;;;7530351;19;20056;-74
2024/02/17 11:59:40;;;;;;;19.85;10.35;;;11.00;99.90;;;;;;7529807;19;20010;-74
2024/02/17 12:02:14;;;;;;;18.53;9.93;;;11.00;99.90;;;;;;7560500;19;21052;-76
2024/02/17 12:04:46;;;;;;;17.25;10.15;;;11.10;99.90;;;;;;7575538;19;20014;-74
2024/02/17 12:07:19;;;;;;;18.33;10.20;;;11.10;99.90;;;;;;7572635;19;20490;-75
2024/02/17 12:09:51;;;;;;;17.35;10.13;;;11.10;99.90;;;;;;7582077;19;20011;-75
2024/02/17 12:12:25;;;;;;;17.55;8.80;;;11.10;99.90;;;;;;7583912;19;20011;-75
2024/02/17 12:14:58;;;;;;;17.95;9.98;;;11.10;99.90;;;;;;7540619;19;20025;-74
2024/02/17 12:17:43;;;;;;;16.20;9.60;;;11.10;99.90;;;;;;7525873;19;20018;-75
2024/02/17 12:20:17;;;;;;;17.33;9.48;;;11.00;99.90;;;;;;7544028;19;21048;-75
2024/02/17 12:22:53;;;;;;;;;;;10.90;99.90;;;;;;7532095;19;20206;-75
2024/02/17 12:25:27;;;;;;;19.92;10.38;;;11.00;99.90;;;;;;7554769;19;19914;-75
2024/02/17 12:28:02;;;;;;;20.00;9.98;;;11.00;99.90;;;;;;7551535;19;20018;-77
2024/02/17 12:30:50;;;;;;;19.70;11.82;;;10.90;99.90;;;;;;7539917;19;20952;-73
2024/02/17 12:33:23;;;;;;;19.02;10.82;;;11.00;99.90;;;;;;7558066;19;20014;-75
2024/02/17 12:35:55;;;;;;;20.23;10.98;;;11.00;99.90;;;;;;7553749;19;20011;-75
2024/02/17 12:38:28;;;;;;;21.50;11.15;;;11.10;99.90;;;;;;7587477;19;20006;-76
2024/02/17 12:41:01;;;;;;;17.85;10.52;;;11.00;99.90;;;;;;7552175;19;20011;-74
2024/02/17 12:43:34;;;;;;;20.05;10.77;;;11.00;99.90;;;;;;7555509;19;20520;-75
2024/02/17 12:46:20;;;;;;;15.85;10.13;;;11.00;99.90;;;;;;7562618;19;20010;-76
2024/02/17 12:48:54;;;;;;;19.02;11.15;;;11.00;99.90;;;;;;7575655;19;20014;-73
2024/02/17 12:51:28;;;;;;;;;;;11.10;99.90;;;;;;7577867;19;20532;-75
2024/02/17 12:54:02;;;;;;;21.63;11.35;;;11.10;99.90;;;;;;7573206;19;19923;-76
2024/02/17 12:56:35;;;;;;;22.75;11.38;;;11.20;99.90;;;;;;7583483;19;20014;-76
2024/02/17 12:59:08;;;;;;;20.43;11.23;;;11.30;99.90;;;;;;7580292;19;20665;-77
2024/02/17 13:01:40;;;;;;;20.40;11.27;;;11.30;99.90;;;;;;7591399;19;20023;-77
2024/02/17 13:04:13;;;;;;;21.60;11.77;;;11.40;99.90;;;;;;7596056;19;20084;-77